createdAt,value
2018-09-18T16:32:48.181Z,71.60
2018-09-18T16:35:16.291Z,71.90
2018-09-18T16:37:44.433Z,71.50
2018-09-18T16:40:12.525Z,71.00
2018-09-18T16:42:40.661Z,71.20
2018-09-18T16:45:08.749Z,71.10
2018-09-18T16:47:36.994Z,71.60
2018-09-18T16:50:05.085Z,71.20
2018-09-18T16:52:33.208Z,71.30
2018-09-18T16:55:01.311Z,71.60
2018-09-18T16:57:29.409Z,72.30
2018-09-18T16:59:57.629Z,73.00
2018-09-18T17:02:25.756Z,72.80
2018-09-18T17:04:53.830Z,72.90
2018-09-18T17:07:22.088Z,73.40
2018-09-18T17:09:50.146Z,73.70
2018-09-18T17:12:20.353Z,74.20
2018-09-18T17:14:48.486Z,73.70
2018-09-18T17:17:16.668Z,73.70
2018-09-18T17:19:44.850Z,73.60
2018-09-18T17:22:12.876Z,73.50
2018-09-18T17:24:41.054Z,72.90
2018-09-18T17:27:09.057Z,73.90
2018-09-18T17:29:37.521Z,72.40
2018-09-18T17:32:06.798Z,72.50
2018-09-18T17:34:35.118Z,72.80
2018-09-18T17:37:03.871Z,74.00
2018-09-18T17:39:32.169Z,73.40
2018-09-18T17:42:00.276Z,73.90
2018-09-18T17:44:28.326Z,75.20
2018-09-18T17:46:56.637Z,73.50
2018-09-18T17:49:24.685Z,75.20
2018-09-18T17:51:52.771Z,74.80
2018-09-18T17:54:20.807Z,74.90
2018-09-18T17:56:49.043Z,75.50
2018-09-18T17:59:17.166Z,75.50
2018-09-18T18:01:45.390Z,77.80
2018-09-18T18:04:13.507Z,77.30
2018-09-18T18:06:41.570Z,77.50
2018-09-18T18:09:09.641Z,77.60
2018-09-18T18:11:37.744Z,78.40
2018-09-18T18:14:05.952Z,78.60
2018-09-18T18:16:34.031Z,79.70
2018-09-18T18:19:02.128Z,80.30
2018-09-18T18:21:30.139Z,80.40
2018-09-18T18:23:58.305Z,81.50
2018-09-18T18:26:26.504Z,81.80
2018-09-18T18:28:54.596Z,82.00
2018-09-18T18:31:22.668Z,82.90
2018-09-18T18:33:50.729Z,83.10
2018-09-18T18:36:18.823Z,84.30
2018-09-18T18:38:47.186Z,85.00
2018-09-18T18:41:15.268Z,85.90
2018-09-18T18:43:43.530Z,85.80
2018-09-18T18:46:11.678Z,87.20
2018-09-18T18:48:39.847Z,88.30
2018-09-18T18:51:07.836Z,87.70
2018-09-18T18:53:36.083Z,89.80
2018-09-18T18:56:04.163Z,88.40
2018-09-18T18:58:32.333Z,88.50
2018-09-18T19:01:00.547Z,89.80
2018-09-18T19:03:29.645Z,89.70
2018-09-18T19:05:57.741Z,90.10
2018-09-18T19:08:25.917Z,90.10
2018-09-18T19:10:54.154Z,91.30
2018-09-18T19:13:22.361Z,91.50
2018-09-18T19:15:50.732Z,91.90
2018-09-18T19:18:18.959Z,91.60
2018-09-18T19:20:47.032Z,92.30
2018-09-18T19:23:15.165Z,92.90
2018-09-18T19:25:43.327Z,93.60
2018-09-18T19:28:11.324Z,92.90
2018-09-18T19:30:39.467Z,93.10
2018-09-18T19:33:07.700Z,93.70
2018-09-18T19:35:35.808Z,93.90
2018-09-18T19:38:04.083Z,93.80
2018-09-18T19:40:32.178Z,94.40
2018-09-18T19:43:01.367Z,94.60
2018-09-18T19:45:29.741Z,94.70
2018-09-18T19:47:57.828Z,94.80
2018-09-18T19:50:25.963Z,95.20
2018-09-18T19:52:53.979Z,95.90
2018-09-18T19:55:22.033Z,96.80
2018-09-18T19:57:50.176Z,96.40
2018-09-18T20:00:18.236Z,96.50
2018-09-18T20:02:46.320Z,96.90
2018-09-18T20:05:14.507Z,97.20
2018-09-18T20:07:42.640Z,98.60
2018-09-18T20:10:10.864Z,98.20
2018-09-18T20:12:41.194Z,99.30
2018-09-18T20:15:09.343Z,98.30
2018-09-18T20:17:37.473Z,99.10
2018-09-18T20:20:05.703Z,99.90
2018-09-18T20:22:33.837Z,99.20
2018-09-18T20:25:01.906Z,99.50
2018-09-18T20:27:30.015Z,99.60
2018-09-18T20:29:58.098Z,99.90
2018-09-18T20:32:26.182Z,99.90
2018-09-18T20:34:54.245Z,99.90
2018-09-18T20:37:22.330Z,99.90
2018-09-18T20:39:50.460Z,99.90
2018-09-18T20:42:18.739Z,99.90
2018-09-18T20:44:46.811Z,99.90
2018-09-18T20:47:14.914Z,99.90
2018-09-18T20:49:43.040Z,99.90
2018-09-18T20:52:11.082Z,99.90
2018-09-18T20:54:39.169Z,99.90
2018-09-18T20:57:07.194Z,99.90
2018-09-18T20:59:35.275Z,99.90
2018-09-18T21:02:03.435Z,99.90
2018-09-18T21:04:31.516Z,99.90
2018-09-18T21:06:59.608Z,99.90
2018-09-18T21:09:27.736Z,99.90
2018-09-18T21:11:55.843Z,99.90
2018-09-18T21:14:24.013Z,99.90
2018-09-18T21:16:52.190Z,99.90
2018-09-18T21:19:20.279Z,99.90
2018-09-18T21:21:48.376Z,99.90
2018-09-18T21:24:16.403Z,99.90
2018-09-18T21:26:44.482Z,99.90
2018-09-18T21:29:12.561Z,99.90
2018-09-18T21:31:40.631Z,99.90
2018-09-18T21:34:08.723Z,99.90
2018-09-18T21:36:36.762Z,99.90
2018-09-18T21:39:07.444Z,99.90
2018-09-18T21:41:35.686Z,99.90
2018-09-18T21:44:03.870Z,99.90
2018-09-18T21:46:32.158Z,99.90
2018-09-18T21:49:00.188Z,99.90
2018-09-18T21:54:02.842Z,99.90
2018-09-18T21:56:30.941Z,99.90
2018-09-18T21:58:59.062Z,99.90
2018-09-18T22:01:27.305Z,99.90
2018-09-18T22:03:55.332Z,99.90
2018-09-18T22:06:23.351Z,99.90
2018-09-18T22:08:51.434Z,99.90
2018-09-18T22:11:19.561Z,99.90
2018-09-18T22:13:47.664Z,99.90
2018-09-18T22:16:15.697Z,99.90
2018-09-18T22:18:43.754Z,99.90
2018-09-18T22:21:11.839Z,99.90
2018-09-18T22:23:39.860Z,99.90
2018-09-18T22:26:07.881Z,99.90
2018-09-18T22:28:35.991Z,99.90
2018-09-18T22:31:04.038Z,99.90
2018-09-18T22:33:32.164Z,99.90
2018-09-18T22:36:00.198Z,99.90
2018-09-18T22:38:28.235Z,99.90
2018-09-18T22:40:56.400Z,99.90
2018-09-18T22:43:24.421Z,99.90
2018-09-18T22:45:52.559Z,99.90
2018-09-18T22:48:20.684Z,99.90
2018-09-18T22:50:48.706Z,99.90
2018-09-18T22:53:16.862Z,99.90
2018-09-18T22:55:45.168Z,99.90
2018-09-18T22:58:13.212Z,99.90
2018-09-18T23:00:41.336Z,99.90
2018-09-18T23:03:09.384Z,99.90
2018-09-18T23:05:37.454Z,99.90
2018-09-18T23:08:05.542Z,99.90
2018-09-18T23:10:33.573Z,99.90
2018-09-18T23:13:01.614Z,99.90
2018-09-18T23:15:29.688Z,99.90
2018-09-18T23:17:57.732Z,99.90
2018-09-18T23:20:26.492Z,99.90
2018-09-18T23:22:54.520Z,99.90
2018-09-18T23:25:22.589Z,99.90
2018-09-18T23:27:50.643Z,99.90
2018-09-18T23:30:18.693Z,99.90
2018-09-18T23:32:46.729Z,99.90
2018-09-18T23:35:14.766Z,99.90
2018-09-18T23:37:42.781Z,99.90
2018-09-18T23:40:10.829Z,99.90
2018-09-18T23:42:38.898Z,99.90
2018-09-18T23:45:06.969Z,99.90
2018-09-18T23:47:35.132Z,99.90
2018-09-18T23:50:03.359Z,99.90
2018-09-18T23:52:31.384Z,99.90
2018-09-18T23:54:59.457Z,99.90
2018-09-18T23:57:27.477Z,99.90
2018-09-18T23:59:55.509Z,99.90
